Time;durP1;ratioP1;P1;durP2;ratioP2;P2;SDS_P1;SDS_P2;PMS_P1;PMS_P2;Temp;Humidity;BMP_temperature;BMP_pressure;BME280_temperature;BME280_humidity;BME280_pressure;Samples;Min_cycle;Max_cycle;Signal;HPM_P1;HPM_P2
2022/06/19 00:00:09;;;;;;;;;7.50;7.50;;;;;;;;5005772;28;8874;-79
2022/06/19 00:02:38;;;;;;;;;7.50;7.50;;;;;;;;5026218;28;8985;-79
2022/06/19 00:05:06;;;;;;;;;8.25;7.50;;;;;;;;5021500;28;8870;-78
2022/06/19 00:07:34;;;;;;;;;8.00;7.25;;;;;;;;5009041;28;8862;-80
2022/06/19 00:10:03;;;;;;;;;9.50;7.00;;;;;;;;5023175;28;8873;-79
2022/06/19 00:12:32;;;;;;;;;9.00;9.00;;;;;;;;5025979;28;8991;-78
2022/06/19 00:14:59;;;;;;;;;10.75;9.75;;;;;;;;5028112;28;8858;-79
2022/06/19 00:17:27;;;;;;;;;10.00;9.50;;;;;;;;5016949;28;8883;-79
2022/06/19 00:19:55;;;;;;;;;16.00;14.00;;;;;;;;5020599;28;8882;-80
2022/06/19 00:22:23;;;;;;;;;10.75;7.75;;;;;;;;5021700;28;8872;-78
2022/06/19 00:24:50;;;;;;;;;12.00;12.00;;;;;;;;5025026;28;8870;-80
2022/06/19 00:27:17;;;;;;;;;15.50;15.50;;;;;;;;5019817;28;8981;-79
2022/06/19 00:29:46;;;;;;;;;11.00;10.75;;;;;;;;5021973;28;8866;-80
2022/06/19 00:32:14;;;;;;;;;17.75;14.75;;;;;;;;5019227;28;8933;-80
2022/06/19 00:34:41;;;;;;;;;11.50;11.00;;;;;;;;5020302;28;8892;-80
2022/06/19 00:37:09;;;;;;;;;19.00;17.25;;;;;;;;5026371;28;8912;-79
2022/06/19 00:39:39;;;;;;;;;18.50;18.50;;;;;;;;5022421;28;8878;-80
2022/06/19 00:42:09;;;;;;;;;24.75;22.25;;;;;;;;5005106;28;8844;-79
2022/06/19 00:44:36;;;;;;;;;18.75;17.50;;;;;;;;5017828;28;8866;-80
2022/06/19 00:47:09;;;;;;;;;18.75;14.50;;;;;;;;5021111;28;8897;-81
2022/06/19 00:49:38;;;;;;;;;15.75;13.00;;;;;;;;5019157;28;8866;-80
2022/06/19 00:52:08;;;;;;;;;16.75;16.00;;;;;;;;5026754;28;8886;-80
2022/06/19 00:54:41;;;;;;;;;17.75;13.25;;;;;;;;5022706;28;8857;-80
2022/06/19 00:57:08;;;;;;;;;10.00;10.00;;;;;;;;5023537;28;8886;-80
2022/06/19 00:59:36;;;;;;;;;10.50;10.00;;;;;;;;5024058;28;8876;-81
2022/06/19 01:02:06;;;;;;;;;10.75;7.50;;;;;;;;5009768;28;8810;-80
2022/06/19 01:04:37;;;;;;;;;11.75;8.75;;;;;;;;5025305;28;8900;-80
2022/06/19 01:07:05;;;;;;;;;12.75;9.50;;;;;;;;5023504;28;8836;-81
2022/06/19 01:09:33;;;;;;;;;10.25;7.25;;;;;;;;5017588;28;8871;-81
2022/06/19 01:12:01;;;;;;;;;10.75;7.50;;;;;;;;5001489;28;8857;-81
2022/06/19 01:14:29;;;;;;;;;7.67;7.67;;;;;;;;5020670;28;8846;-80
2022/06/19 01:16:56;;;;;;;;;7.50;7.00;;;;;;;;5018834;28;8888;-80
2022/06/19 01:19:29;;;;;;;;;9.75;6.00;;;;;;;;5018488;28;8870;-80
2022/06/19 01:22:09;;;;;;;;;7.00;7.00;;;;;;;;5018404;28;8854;-79
2022/06/19 01:24:42;;;;;;;;;7.00;6.00;;;;;;;;5018475;28;8858;-80
2022/06/19 01:28:45;;;;;;;;;11.00;8.00;;;;;;;;5020790;28;9601;-79
2022/06/19 01:30:03;;;;;;;;;9.00;8.00;;;;;;;;5020474;28;8877;-81
2022/06/19 01:32:31;;;;;;;;;11.50;10.00;;;;;;;;5023651;28;8874;-81
2022/06/19 01:35:00;;;;;;;;;10.75;8.00;;;;;;;;5008395;28;8850;-80
2022/06/19 01:37:29;;;;;;;;;10.00;7.25;;;;;;;;4998357;28;9679;-80
2022/06/19 01:40:00;;;;;;;;;6.75;6.00;;;;;;;;5022561;28;8886;-80
2022/06/19 01:42:30;;;;;;;;;1.00;1.00;;;;;;;;5006139;28;8998;-80
2022/06/19 01:44:58;;;;;;;;;8.00;8.00;;;;;;;;5022589;28;8866;-80
2022/06/19 01:47:27;;;;;;;;;7.75;6.50;;;;;;;;5017397;28;8979;-83
2022/06/19 01:49:56;;;;;;;;;9.25;8.75;;;;;;;;5021219;28;8866;-82
2022/06/19 01:52:25;;;;;;;;;7.25;6.50;;;;;;;;5026279;28;8878;-83
2022/06/19 01:54:57;;;;;;;;;7.75;7.75;;;;;;;;5023683;28;8880;-83
2022/06/19 01:57:25;;;;;;;;;5.00;3.75;;;;;;;;5027021;28;8896;-83
2022/06/19 01:59:54;;;;;;;;;9.50;8.25;;;;;;;;5029436;28;8850;-82
2022/06/19 02:02:23;;;;;;;;;11.50;6.75;;;;;;;;5024351;28;8808;-82
2022/06/19 02:04:51;;;;;;;;;9.25;8.00;;;;;;;;5026849;28;8850;-80
2022/06/19 02:07:22;;;;;;;;;7.00;5.25;;;;;;;;5024664;28;8898;-79
2022/06/19 02:09:51;;;;;;;;;12.75;8.50;;;;;;;;5007190;28;8872;-80
2022/06/19 02:12:20;;;;;;;;;7.75;7.00;;;;;;;;5021126;28;10028;-80
2022/06/19 02:14:48;;;;;;;;;6.25;6.25;;;;;;;;5024426;28;8869;-80
2022/06/19 02:17:19;;;;;;;;;13.25;6.75;;;;;;;;5022858;28;8872;-80
2022/06/19 02:19:47;;;;;;;;;6.75;6.00;;;;;;;;5024610;28;8870;-79
2022/06/19 02:22:16;;;;;;;;;8.75;6.00;;;;;;;;5010299;28;8890;-79
2022/06/19 02:24:44;;;;;;;;;6.00;6.00;;;;;;;;5019461;28;9639;-80
2022/06/19 02:27:11;;;;;;;;;6.25;5.00;;;;;;;;5024950;28;8990;-78
2022/06/19 02:29:40;;;;;;;;;11.00;7.75;;;;;;;;5022746;28;8862;-79
2022/06/19 02:32:10;;;;;;;;;7.00;5.00;;;;;;;;5026735;28;9702;-79
2022/06/19 02:34:42;;;;;;;;;8.75;7.00;;;;;;;;5023860;28;8869;-79
2022/06/19 02:37:14;;;;;;;;;5.75;5.75;;;;;;;;5016882;28;9013;-80
2022/06/19 02:39:45;;;;;;;;;6.00;6.00;;;;;;;;5023655;28;8874;-80
2022/06/19 02:42:28;;;;;;;;;9.00;7.50;;;;;;;;5027634;28;8924;-81
2022/06/19 02:44:57;;;;;;;;;5.00;4.75;;;;;;;;5027742;28;8886;-81
2022/06/19 02:47:25;;;;;;;;;6.25;5.25;;;;;;;;5024077;28;9614;-81
2022/06/19 02:49:54;;;;;;;;;5.50;3.50;;;;;;;;5025493;28;9065;-81
2022/06/19 02:52:22;;;;;;;;;9.50;6.75;;;;;;;;5025547;28;8880;-81
2022/06/19 02:54:49;;;;;;;;;7.50;5.50;;;;;;;;5024762;28;8858;-80
2022/06/19 02:57:18;;;;;;;;;9.50;7.00;;;;;;;;5026360;28;8924;-80
2022/06/19 02:59:45;;;;;;;;;5.00;5.00;;;;;;;;5023891;28;8859;-80
2022/06/19 03:02:14;;;;;;;;;8.00;5.00;;;;;;;;5019112;28;8826;-80
2022/06/19 03:04:43;;;;;;;;;5.25;5.00;;;;;;;;5026411;28;8846;-80
2022/06/19 03:07:12;;;;;;;;;5.75;5.75;;;;;;;;5029718;28;8864;-79
2022/06/19 03:09:39;;;;;;;;;7.50;7.50;;;;;;;;5024547;28;8848;-80
2022/06/19 03:12:08;;;;;;;;;2.25;2.25;;;;;;;;5019372;28;8892;-80
2022/06/19 03:14:35;;;;;;;;;4.75;4.75;;;;;;;;5023209;28;9696;-80
2022/06/19 03:17:02;;;;;;;;;6.75;5.75;;;;;;;;5015986;28;8909;-80
2022/06/19 03:19:30;;;;;;;;;6.25;4.75;;;;;;;;5026591;28;9735;-80
2022/06/19 03:21:57;;;;;;;;;6.00;6.00;;;;;;;;5023387;28;8834;-80
2022/06/19 03:24:26;;;;;;;;;8.00;5.00;;;;;;;;5022076;28;8866;-80
2022/06/19 03:26:54;;;;;;;;;4.00;4.00;;;;;;;;5022934;28;8878;-80
2022/06/19 03:29:23;;;;;;;;;7.00;5.75;;;;;;;;5017662;28;8887;-80
2022/06/19 03:31:51;;;;;;;;;4.50;3.00;;;;;;;;5026604;28;8826;-80
2022/06/19 03:34:18;;;;;;;;;3.50;3.50;;;;;;;;4991948;28;8854;-79
2022/06/19 03:36:45;;;;;;;;;7.25;3.75;;;;;;;;5028742;28;8878;-80
2022/06/19 03:39:12;;;;;;;;;5.00;5.00;;;;;;;;5023206;28;8848;-81
2022/06/19 03:41:43;;;;;;;;;4.75;3.25;;;;;;;;5028232;28;8864;-79
2022/06/19 03:44:10;;;;;;;;;5.50;3.00;;;;;;;;5023975;28;8865;-80
2022/06/19 03:46:38;;;;;;;;;4.00;2.00;;;;;;;;5024545;28;8864;-80
2022/06/19 03:49:05;;;;;;;;;6.00;2.50;;;;;;;;5023525;28;8870;-81
2022/06/19 03:51:32;;;;;;;;;3.50;3.00;;;;;;;;5022899;28;8846;-80
2022/06/19 03:54:00;;;;;;;;;5.50;4.00;;;;;;;;5016801;28;8873;-81
2022/06/19 03:56:28;;;;;;;;;5.50;2.50;;;;;;;;5027446;28;8894;-80
2022/06/19 03:58:58;;;;;;;;;6.00;4.50;;;;;;;;5019515;28;8876;-80
2022/06/19 04:01:26;;;;;;;;;7.25;3.75;;;;;;;;5017917;28;8934;-80
2022/06/19 04:03:55;;;;;;;;;2.50;2.50;;;;;;;;5025284;28;9727;-80
2022/06/19 04:06:24;;;;;;;;;3.00;1.50;;;;;;;;5024713;28;8904;-79
2022/06/19 04:08:52;;;;;;;;;4.00;2.75;;;;;;;;5024958;28;8876;-79
2022/06/19 04:11:21;;;;;;;;;2.00;2.00;;;;;;;;5025037;28;9690;-79
2022/06/19 04:13:49;;;;;;;;;2.50;2.50;;;;;;;;5020590;28;8863;-79
2022/06/19 04:16:20;;;;;;;;;2.75;1.50;;;;;;;;5022482;28;8884;-79
2022/06/19 04:18:50;;;;;;;;;2.50;2.00;;;;;;;;5018957;28;8847;-79
2022/06/19 04:21:19;;;;;;;;;2.50;2.50;;;;;;;;5021169;28;9677;-79
2022/06/19 04:23:47;;;;;;;;;1.00;1.00;;;;;;;;5007588;28;8862;-79
2022/06/19 04:26:19;;;;;;;;;1.25;1.25;;;;;;;;5025936;28;9683;-81
2022/06/19 04:28:46;;;;;;;;;2.00;1.25;;;;;;;;5022496;28;8885;-80
2022/06/19 04:31:14;;;;;;;;;3.00;2.25;;;;;;;;5025082;28;8812;-79
2022/06/19 04:33:43;;;;;;;;;2.00;2.00;;;;;;;;5019403;28;8965;-80
2022/06/19 04:36:12;;;;;;;;;2.75;2.75;;;;;;;;5022462;28;8856;-81
2022/06/19 04:38:40;;;;;;;;;1.00;1.00;;;;;;;;5005225;28;9913;-78
2022/06/19 04:41:14;;;;;;;;;3.00;2.00;;;;;;;;5027765;28;8903;-83
2022/06/19 04:43:41;;;;;;;;;2.25;2.25;;;;;;;;5021981;28;8864;-82
2022/06/19 04:46:09;;;;;;;;;5.00;2.00;;;;;;;;5023762;28;9527;-82
2022/06/19 04:48:37;;;;;;;;;2.25;1.25;;;;;;;;5022598;28;8870;-80
2022/06/19 04:51:07;;;;;;;;;3.00;2.00;;;;;;;;5023843;28;8862;-82
2022/06/19 04:53:37;;;;;;;;;3.00;1.00;;;;;;;;5018621;28;8856;-81
2022/06/19 04:56:05;;;;;;;;;1.00;1.00;;;;;;;;5024963;28;8858;-80
2022/06/19 04:58:32;;;;;;;;;6.25;1.75;;;;;;;;5022434;28;8846;-81
2022/06/19 05:01:01;;;;;;;;;4.00;3.00;;;;;;;;5001128;28;9651;-81
2022/06/19 05:03:29;;;;;;;;;2.00;2.00;;;;;;;;5023362;28;8850;-80
2022/06/19 05:05:56;;;;;;;;;1.50;1.50;;;;;;;;5023193;28;8874;-82
2022/06/19 05:08:26;;;;;;;;;3.00;2.75;;;;;;;;5001421;28;8940;-82
2022/06/19 05:10:53;;;;;;;;;2.75;2.25;;;;;;;;5023731;28;9049;-82
2022/06/19 05:13:25;;;;;;;;;1.00;1.00;;;;;;;;5027478;28;8868;-81
2022/06/19 05:16:04;;;;;;;;;3.75;2.00;;;;;;;;5026052;28;8852;-79
2022/06/19 05:18:32;;;;;;;;;1.50;0.50;;;;;;;;5016890;28;8936;-79
2022/06/19 05:21:02;;;;;;;;;1.50;1.50;;;;;;;;5009858;28;8846;-82
2022/06/19 05:23:31;;;;;;;;;1.50;1.50;;;;;;;;5017296;28;8902;-85
2022/06/19 05:26:01;;;;;;;;;1.75;1.75;;;;;;;;5016126;28;8929;-76
2022/06/19 05:28:29;;;;;;;;;3.75;1.75;;;;;;;;5013262;28;8917;-75
2022/06/19 05:31:02;;;;;;;;;0.50;0.50;;;;;;;;5026746;28;8824;-76
2022/06/19 05:33:31;;;;;;;;;3.25;2.50;;;;;;;;5021644;28;8879;-77
2022/06/19 05:35:58;;;;;;;;;4.00;2.25;;;;;;;;5017982;28;8862;-77
2022/06/19 05:38:26;;;;;;;;;3.75;2.25;;;;;;;;5015295;28;8876;-76
2022/06/19 05:40:56;;;;;;;;;3.25;3.25;;;;;;;;5022030;28;8870;-76
2022/06/19 05:43:25;;;;;;;;;2.75;1.25;;;;;;;;5021192;28;8866;-73
2022/06/19 05:45:53;;;;;;;;;3.75;2.00;;;;;;;;5019051;28;8850;-75
2022/06/19 05:48:21;;;;;;;;;3.50;2.25;;;;;;;;5020240;28;8884;-74
2022/06/19 05:51:00;;;;;;;;;1.75;1.00;;;;;;;;5000493;28;8872;-74
2022/06/19 05:53:29;;;;;;;;;1.50;1.00;;;;;;;;5015058;28;8860;-76
2022/06/19 05:56:00;;;;;;;;;4.50;2.00;;;;;;;;5025416;28;8918;-75
2022/06/19 05:58:27;;;;;;;;;1.25;1.25;;;;;;;;5022566;28;8964;-74
2022/06/19 06:00:55;;;;;;;;;2.00;1.00;;;;;;;;5020918;28;8842;-75
2022/06/19 06:03:24;;;;;;;;;1.25;1.25;;;;;;;;4996397;28;8825;-75
2022/06/19 06:05:51;;;;;;;;;2.25;1.25;;;;;;;;4997122;28;8991;-76
2022/06/19 06:08:21;;;;;;;;;2.00;1.00;;;;;;;;5019670;28;8837;-75
2022/06/19 06:10:50;;;;;;;;;4.00;2.00;;;;;;;;5009519;28;9015;-76
2022/06/19 06:13:19;;;;;;;;;3.75;2.00;;;;;;;;5014853;28;8971;-77
2022/06/19 06:15:46;;;;;;;;;5.75;1.25;;;;;;;;5013870;28;8872;-74
2022/06/19 06:18:14;;;;;;;;;5.75;3.75;;;;;;;;5000683;28;9804;-77
2022/06/19 06:20:41;;;;;;;;;1.00;1.00;;;;;;;;5017729;28;8890;-75
2022/06/19 06:23:09;;;;;;;;;1.75;1.75;;;;;;;;4999400;28;8909;-75
2022/06/19 06:25:40;;;;;;;;;3.00;1.50;;;;;;;;5019121;28;8912;-76
2022/06/19 06:28:08;;;;;;;;;3.25;1.75;;;;;;;;5023664;28;9624;-75
2022/06/19 06:30:37;;;;;;;;;2.25;2.25;;;;;;;;4995594;28;8834;-76
2022/06/19 06:33:05;;;;;;;;;3.00;2.00;;;;;;;;5007727;28;9025;-77
2022/06/19 06:35:33;;;;;;;;;2.00;2.00;;;;;;;;5016493;28;9688;-79
2022/06/19 06:38:01;;;;;;;;;1.25;1.25;;;;;;;;5015921;28;8840;-76
2022/06/19 06:40:29;;;;;;;;;1.50;1.50;;;;;;;;5018566;28;8874;-70
2022/06/19 06:42:56;;;;;;;;;2.50;1.00;;;;;;;;5024339;28;8836;-70
2022/06/19 06:45:24;;;;;;;;;2.00;2.00;;;;;;;;5022465;28;8850;-73
2022/06/19 06:47:52;;;;;;;;;2.75;2.00;;;;;;;;5017216;28;8876;-72
2022/06/19 06:50:20;;;;;;;;;3.25;3.00;;;;;;;;5019826;28;8922;-73
2022/06/19 06:52:47;;;;;;;;;3.25;3.25;;;;;;;;4997301;28;8868;-73
2022/06/19 06:55:15;;;;;;;;;3.00;3.00;;;;;;;;5017698;28;9317;-72
2022/06/19 06:57:43;;;;;;;;;2.25;2.25;;;;;;;;5014116;28;8862;-72
2022/06/19 07:00:15;;;;;;;;;2.00;2.00;;;;;;;;5023132;28;8882;-74
2022/06/19 07:02:42;;;;;;;;;4.25;2.25;;;;;;;;5022398;28;8871;-72
2022/06/19 07:05:12;;;;;;;;;5.00;3.00;;;;;;;;5017303;28;8866;-74
2022/06/19 07:07:39;;;;;;;;;3.00;2.25;;;;;;;;5018619;28;8860;-73
2022/06/19 07:10:08;;;;;;;;;5.75;2.00;;;;;;;;5022850;28;8872;-74
2022/06/19 07:12:35;;;;;;;;;2.25;2.25;;;;;;;;5026216;28;8907;-73
2022/06/19 07:15:02;;;;;;;;;2.75;2.75;;;;;;;;5022536;28;9691;-72
2022/06/19 07:17:30;;;;;;;;;3.50;2.00;;;;;;;;5023718;28;8896;-74
2022/06/19 07:30:11;;;;;;;;;5.50;3.50;;;;;;;;5652304;22;8891;-73
2022/06/19 07:32:38;;;;;;;;;4.67;4.00;;;;;;;;4981017;28;8876;-73
2022/06/19 07:35:06;;;;;;;;;6.00;4.50;;;;;;;;4988238;28;8986;-74
2022/06/19 07:37:33;;;;;;;;;4.00;4.00;;;;;;;;4990117;28;8874;-72
2022/06/19 07:40:00;;;;;;;;;6.00;6.00;;;;;;;;4979245;28;8964;-73
2022/06/19 07:42:28;;;;;;;;;5.25;4.50;;;;;;;;4983848;28;8898;-74
2022/06/19 07:44:55;;;;;;;;;4.50;4.00;;;;;;;;4967943;28;8921;-72
2022/06/19 07:50:13;;;;;;;;;7.50;6.00;;;;;;;;4968146;28;8863;-73
2022/06/19 07:52:43;;;;;;;;;5.50;5.50;;;;;;;;4977281;28;8995;-72
2022/06/19 07:55:14;;;;;;;;;5.00;5.00;;;;;;;;4975678;28;8882;-73
2022/06/19 07:57:41;;;;;;;;;5.50;4.75;;;;;;;;4981592;28;8871;-72
2022/06/19 08:00:16;;;;;;;;;6.50;6.50;;;;;;;;4981133;28;8859;-73
2022/06/19 08:02:47;;;;;;;;;5.25;4.00;;;;;;;;4984471;28;8878;-72
2022/06/19 08:05:15;;;;;;;;;4.50;4.50;;;;;;;;4982349;28;8859;-72
2022/06/19 08:07:43;;;;;;;;;5.00;5.00;;;;;;;;4983426;28;8872;-73
2022/06/19 08:10:14;;;;;;;;;3.75;3.75;;;;;;;;4979983;28;8968;-73
2022/06/19 08:12:43;;;;;;;;;5.50;5.50;;;;;;;;4977982;28;8883;-73
2022/06/19 08:15:11;;;;;;;;;6.75;3.50;;;;;;;;4972644;28;8872;-72
2022/06/19 08:17:39;;;;;;;;;3.50;3.50;;;;;;;;4980005;28;9615;-72
2022/06/19 08:20:09;;;;;;;;;5.00;5.00;;;;;;;;4975746;28;8880;-72
2022/06/19 08:22:37;;;;;;;;;5.25;3.25;;;;;;;;4973582;28;8873;-73
2022/06/19 08:25:05;;;;;;;;;3.00;3.00;;;;;;;;4974450;28;9718;-74
2022/06/19 08:27:33;;;;;;;;;4.25;4.25;;;;;;;;4975056;28;8903;-75
2022/06/19 08:30:01;;;;;;;;;3.50;3.50;;;;;;;;4973956;28;8902;-74
2022/06/19 08:32:29;;;;;;;;;5.75;5.00;;;;;;;;4977903;28;8869;-74
2022/06/19 08:34:56;;;;;;;;;3.00;3.00;;;;;;;;4978093;28;8863;-76
2022/06/19 08:37:25;;;;;;;;;4.00;2.50;;;;;;;;4977689;28;9639;-75
2022/06/19 08:39:55;;;;;;;;;3.00;3.00;;;;;;;;4980619;28;8856;-75
2022/06/19 08:42:41;;;;;;;;;3.00;3.00;;;;;;;;4978750;28;9718;-73
2022/06/19 08:45:25;;;;;;;;;1.75;1.75;;;;;;;;4981073;28;9045;-72
2022/06/19 08:48:06;;;;;;;;;1.50;1.50;;;;;;;;4980529;28;8960;-72
2022/06/19 08:50:35;;;;;;;;;2.50;2.50;;;;;;;;4976087;28;9033;-74
2022/06/19 08:53:20;;;;;;;;;1.00;1.00;;;;;;;;4983173;28;8983;-72
2022/06/19 08:55:50;;;;;;;;;2.25;2.25;;;;;;;;4985681;28;9002;-70
2022/06/19 08:58:29;;;;;;;;;4.50;3.00;;;;;;;;4981591;28;10108;-72
2022/06/19 09:01:00;;;;;;;;;2.75;2.00;;;;;;;;4977174;28;8840;-72
2022/06/19 09:05:36;;;;;;;;;3.00;3.00;;;;;;;;4975843;28;8867;-74
2022/06/19 09:06:30;;;;;;;;;2.00;2.00;;;;;;;;4982454;28;8947;-74
2022/06/19 09:09:21;;;;;;;;;4.25;2.75;;;;;;;;4977953;28;9013;-73
2022/06/19 09:12:02;;;;;;;;;2.50;2.50;;;;;;;;4979867;28;8871;-72
2022/06/19 09:14:37;;;;;;;;;5.00;5.00;;;;;;;;4979500;28;8880;-73
2022/06/19 09:17:11;;;;;;;;;7.00;7.00;;;;;;;;4977512;28;8921;-73
2022/06/19 09:19:49;;;;;;;;;8.00;8.00;;;;;;;;4976123;28;8879;-72
2022/06/19 09:22:39;;;;;;;;;5.00;5.00;;;;;;;;4984223;28;8875;-73
2022/06/19 09:25:20;;;;;;;;;6.00;6.00;;;;;;;;4978858;28;8891;-73
2022/06/19 09:27:54;;;;;;;;;4.75;4.75;;;;;;;;4976431;28;8867;-73
2022/06/19 09:30:26;;;;;;;;;7.75;6.50;;;;;;;;4980254;28;8859;-74
2022/06/19 09:32:59;;;;;;;;;10.25;8.50;;;;;;;;4976875;28;8929;-74
2022/06/19 09:35:31;;;;;;;;;6.25;6.25;;;;;;;;4979154;28;8865;-74
2022/06/19 09:38:04;;;;;;;;;7.50;7.25;;;;;;;;4979764;28;8894;-73
2022/06/19 09:40:36;;;;;;;;;6.50;6.50;;;;;;;;4977186;28;8961;-72
2022/06/19 09:43:09;;;;;;;;;7.25;6.00;;;;;;;;4980678;28;8878;-72
2022/06/19 09:45:39;;;;;;;;;6.00;6.00;;;;;;;;4977473;28;8944;-73
2022/06/19 09:48:12;;;;;;;;;6.75;6.75;;;;;;;;4977982;28;8932;-73
2022/06/19 09:50:43;;;;;;;;;9.75;7.00;;;;;;;;4980928;28;9524;-73
2022/06/19 09:53:13;;;;;;;;;8.75;7.50;;;;;;;;4979399;28;8940;-73
2022/06/19 09:55:45;;;;;;;;;7.75;5.75;;;;;;;;4979052;28;8883;-73
2022/06/19 09:58:15;;;;;;;;;6.50;5.00;;;;;;;;4978674;28;8889;-72
2022/06/19 10:00:45;;;;;;;;;21.75;21.75;;;;;;;;4974756;28;8831;-71
2022/06/19 10:03:18;;;;;;;;;9.25;7.75;;;;;;;;4974164;28;8875;-73
2022/06/19 10:05:49;;;;;;;;;5.25;5.25;;;;;;;;4976757;28;8887;-73
2022/06/19 10:08:21;;;;;;;;;9.25;9.25;;;;;;;;4976381;28;9667;-73
2022/06/19 10:10:53;;;;;;;;;7.00;6.75;;;;;;;;4973169;28;8905;-74
2022/06/19 10:13:23;;;;;;;;;9.25;8.00;;;;;;;;4971754;28;8884;-74
2022/06/19 10:15:53;;;;;;;;;8.25;8.25;;;;;;;;4979983;28;8875;-73
2022/06/19 10:18:23;;;;;;;;;12.00;8.75;;;;;;;;4976378;28;8863;-74
2022/06/19 10:20:59;;;;;;;;;10.50;8.75;;;;;;;;4980409;28;8883;-74
2022/06/19 10:23:35;;;;;;;;;10.75;8.50;;;;;;;;4980441;28;8956;-73
2022/06/19 10:26:20;;;;;;;;;11.00;9.25;;;;;;;;4977778;28;8874;-74
2022/06/19 10:29:01;;;;;;;;;8.75;8.75;;;;;;;;4973951;28;8885;-73
2022/06/19 10:31:40;;;;;;;;;20.00;20.00;;;;;;;;4975539;28;8812;-74
2022/06/19 10:34:15;;;;;;;;;10.25;10.25;;;;;;;;4980087;28;8860;-75
2022/06/19 10:36:49;;;;;;;;;16.75;15.50;;;;;;;;4975327;28;8897;-73
2022/06/19 10:39:29;;;;;;;;;23.00;20.75;;;;;;;;4976483;28;8884;-72
2022/06/19 10:42:06;;;;;;;;;19.25;19.25;;;;;;;;4971623;28;9766;-72
2022/06/19 10:45:01;;;;;;;;;14.75;13.25;;;;;;;;4971421;28;8891;-73
2022/06/19 10:47:39;;;;;;;;;8.00;8.00;;;;;;;;4978172;28;8908;-73
2022/06/19 10:50:15;;;;;;;;;11.50;10.00;;;;;;;;4979921;28;9632;-72
2022/06/19 10:52:53;;;;;;;;;12.00;10.25;;;;;;;;4978315;28;8978;-73
2022/06/19 10:55:28;;;;;;;;;8.00;8.00;;;;;;;;4979615;28;8965;-73
2022/06/19 10:58:10;;;;;;;;;9.00;8.00;;;;;;;;4974819;28;9004;-72
2022/06/19 11:00:38;;;;;;;;;11.50;9.75;;;;;;;;4977530;28;8818;-72
2022/06/19 11:06:04;;;;;;;;;10.00;10.00;;;;;;;;4976743;28;8873;-71
2022/06/19 11:08:35;;;;;;;;;10.50;10.50;;;;;;;;4978262;28;8854;-73
2022/06/19 11:11:04;;;;;;;;;9.25;9.25;;;;;;;;4980014;28;8952;-73
2022/06/19 11:14:13;;;;;;;;;10.75;10.75;;;;;;;;4978744;28;9004;-73
2022/06/19 11:16:56;;;;;;;;;5.00;5.00;;;;;;;;4976763;28;9700;-72
2022/06/19 11:19:43;;;;;;;;;8.75;8.75;;;;;;;;4977772;28;9514;-72
2022/06/19 11:22:32;;;;;;;;;12.00;10.50;;;;;;;;4982749;28;8977;-71
2022/06/19 11:25:30;;;;;;;;;10.50;9.75;;;;;;;;4976895;28;8959;-72
2022/06/19 11:28:02;;;;;;;;;7.80;7.80;;;;;;;;4976784;28;8899;-72
2022/06/19 11:30:35;;;;;;;;;9.40;7.60;;;;;;;;4984296;28;8775;-77
2022/06/19 11:33:05;;;;;;;;;6.80;6.80;;;;;;;;4968348;28;8911;-79
2022/06/19 11:35:42;;;;;;;;;7.40;7.00;;;;;;;;4975191;28;9044;-76
2022/06/19 11:38:10;;;;;;;;;6.80;6.80;;;;;;;;4993059;28;9118;-75
2022/06/19 11:40:40;;;;;;;;;7.00;6.00;;;;;;;;4973385;28;8883;-75
2022/06/19 11:43:26;;;;;;;;;6.60;5.20;;;;;;;;4979841;28;8873;-75
2022/06/19 11:46:02;;;;;;;;;6.60;6.60;;;;;;;;4976415;28;8895;-74
2022/06/19 11:48:30;;;;;;;;;7.80;7.80;;;;;;;;4981850;28;8875;-74
2022/06/19 11:50:58;;;;;;;;;5.60;5.60;;;;;;;;4976203;28;8866;-75
2022/06/19 11:53:27;;;;;;;;;7.40;5.40;;;;;;;;4978759;28;8924;-75
2022/06/19 11:56:21;;;;;;;;;7.20;5.40;;;;;;;;4978503;28;8859;-75
2022/06/19 11:58:54;;;;;;;;;7.00;7.00;;;;;;;;4975182;28;8889;-75
2022/06/19 12:01:24;;;;;;;;;8.20;6.80;;;;;;;;4975699;28;8870;-77
2022/06/19 12:03:55;;;;;;;;;8.00;8.00;;;;;;;;4973928;28;8901;-76
2022/06/19 12:06:39;;;;;;;;;8.20;7.40;;;;;;;;4978212;28;8874;-76
2022/06/19 12:09:08;;;;;;;;;7.80;7.80;;;;;;;;4983137;28;8839;-76
2022/06/19 12:11:38;;;;;;;;;8.20;8.20;;;;;;;;4981876;28;8901;-76
2022/06/19 12:14:06;;;;;;;;;7.40;7.40;;;;;;;;4985857;28;8990;-76
2022/06/19 12:16:36;;;;;;;;;7.40;7.40;;;;;;;;4980488;28;8878;-78
2022/06/19 12:19:21;;;;;;;;;6.80;6.20;;;;;;;;4982378;28;8914;-78
2022/06/19 12:21:54;;;;;;;;;7.20;7.20;;;;;;;;4985554;28;8986;-77
2022/06/19 12:24:28;;;;;;;;;11.00;9.80;;;;;;;;4979667;28;8883;-77
2022/06/19 12:26:57;;;;;;;;;11.80;9.00;;;;;;;;4988181;28;8872;-78
2022/06/19 12:29:30;;;;;;;;;8.20;8.20;;;;;;;;4988359;28;9689;-78
2022/06/19 12:32:05;;;;;;;;;8.60;8.60;;;;;;;;4983673;28;8833;-77
2022/06/19 12:34:37;;;;;;;;;10.80;8.80;;;;;;;;4982363;28;8886;-77
2022/06/19 12:37:10;;;;;;;;;10.40;8.80;;;;;;;;4980614;28;9056;-77
2022/06/19 12:39:37;;;;;;;;;9.20;9.20;;;;;;;;4981384;28;8843;-76
2022/06/19 12:42:13;;;;;;;;;9.00;9.00;;;;;;;;4982581;28;8880;-76
2022/06/19 12:44:57;;;;;;;;;14.80;13.80;;;;;;;;4979784;28;9005;-76
2022/06/19 12:47:30;;;;;;;;;11.60;10.60;;;;;;;;4980523;28;8874;-75
2022/06/19 12:50:34;;;;;;;;;12.40;11.80;;;;;;;;4981278;28;8906;-77
2022/06/19 12:53:12;;;;;;;;;12.80;12.80;;;;;;;;4980105;28;8886;-75
2022/06/19 12:55:46;;;;;;;;;14.80;12.00;;;;;;;;4983914;28;9343;-76
2022/06/19 12:58:50;;;;;;;;;12.60;11.00;;;;;;;;4980032;28;8910;-80
2022/06/19 13:01:23;;;;;;;;;14.00;14.00;;;;;;;;4931449;28;8866;-80
2022/06/19 13:04:09;;;;;;;;;13.00;11.80;;;;;;;;4976536;28;8914;-79
2022/06/19 13:07:01;;;;;;;;;12.40;12.40;;;;;;;;4981806;28;8867;-78
2022/06/19 13:09:40;;;;;;;;;9.80;8.60;;;;;;;;4982219;28;8994;-77
2022/06/19 13:12:16;;;;;;;;;12.00;10.80;;;;;;;;4978940;28;9621;-78
2022/06/19 13:15:07;;;;;;;;;10.20;9.60;;;;;;;;4981961;28;9640;-78
2022/06/19 13:17:38;;;;;;;;;14.80;14.60;;;;;;;;4980484;28;8881;-76
2022/06/19 13:20:21;;;;;;;;;15.20;14.60;;;;;;;;4982822;28;8884;-78
2022/06/19 13:22:54;;;;;;;;;13.00;13.00;;;;;;;;4980517;28;8879;-81
2022/06/19 13:25:28;;;;;;;;;16.00;14.60;;;;;;;;4980305;28;8927;-78
2022/06/19 13:28:06;;;;;;;;;15.80;15.80;;;;;;;;4985489;28;8864;-78
2022/06/19 13:30:42;;;;;;;;;14.40;13.20;;;;;;;;4973269;28;8782;-78
2022/06/19 13:33:28;;;;;;;;;12.40;12.40;;;;;;;;4981445;28;9716;-78
2022/06/19 13:36:00;;;;;;;;;15.60;13.00;;;;;;;;4983102;28;8878;-78
2022/06/19 13:38:41;;;;;;;;;11.20;10.40;;;;;;;;4982525;28;9675;-77
2022/06/19 13:41:18;;;;;;;;;21.20;18.00;;;;;;;;4981767;28;8870;-80
2022/06/19 13:43:56;;;;;;;;;18.60;16.80;;;;;;;;4979423;28;8881;-78
2022/06/19 13:46:34;;;;;;;;;17.40;15.80;;;;;;;;4978887;28;9637;-78
2022/06/19 13:49:14;;;;;;;;;17.80;17.40;;;;;;;;4981362;28;9626;-80
2022/06/19 13:52:02;;;;;;;;;16.20;14.80;;;;;;;;4982703;28;8878;-79
2022/06/19 13:54:36;;;;;;;;;21.20;19.80;;;;;;;;4988538;28;8864;-78
2022/06/19 13:57:10;;;;;;;;;21.40;19.20;;;;;;;;4983836;28;8879;-77
2022/06/19 13:59:58;;;;;;;;;20.00;18.60;;;;;;;;4984967;28;9055;-77
2022/06/19 14:02:41;;;;;;;;;16.60;16.60;;;;;;;;4984444;28;8970;-77
2022/06/19 14:05:17;;;;;;;;;20.60;20.60;;;;;;;;4961494;28;8926;-77
2022/06/19 14:07:57;;;;;;;;;20.20;20.20;;;;;;;;4978197;28;8869;-78
2022/06/19 14:10:35;;;;;;;;;25.60;24.20;;;;;;;;4978276;28;9458;-78
2022/06/19 14:13:06;;;;;;;;;20.40;20.40;;;;;;;;4978373;28;8883;-78
2022/06/19 14:15:43;;;;;;;;;19.40;19.40;;;;;;;;4975754;28;8875;-80
2022/06/19 14:18:22;;;;;;;;;24.40;21.00;;;;;;;;4985302;28;9017;-78
2022/06/19 14:20:56;;;;;;;;;24.60;23.80;;;;;;;;4986845;28;9252;-78
2022/06/19 14:23:30;;;;;;;;;18.80;17.60;;;;;;;;4983452;28;8871;-81
2022/06/19 14:26:04;;;;;;;;;21.40;20.60;;;;;;;;4986677;28;8881;-84
2022/06/19 14:28:42;;;;;;;;;18.00;18.00;;;;;;;;4982057;28;8851;-81
2022/06/19 14:31:11;;;;;;;;;19.60;18.80;;;;;;;;4980777;28;8853;-77
2022/06/19 14:33:45;;;;;;;;;20.00;18.00;;;;;;;;4980608;28;8961;-77
2022/06/19 14:36:24;;;;;;;;;16.60;16.60;;;;;;;;4979230;28;8889;-77
2022/06/19 14:38:56;;;;;;;;;21.00;18.20;;;;;;;;4979792;28;9605;-76
2022/06/19 14:41:30;;;;;;;;;13.20;13.20;;;;;;;;4977950;28;9000;-78
2022/06/19 14:44:04;;;;;;;;;17.60;17.60;;;;;;;;4990324;28;8844;-77
2022/06/19 14:46:57;;;;;;;;;19.20;17.60;;;;;;;;4986616;28;8944;-79
2022/06/19 14:49:48;;;;;;;;;17.60;17.20;;;;;;;;4974044;28;8858;-78
2022/06/19 14:52:27;;;;;;;;;19.00;19.00;;;;;;;;4980720;28;8870;-79
2022/06/19 14:55:11;;;;;;;;;20.80;17.20;;;;;;;;4979406;28;8878;-78
2022/06/19 14:57:44;;;;;;;;;16.80;16.80;;;;;;;;4977088;28;8895;-78
2022/06/19 15:00:24;;;;;;;;;17.20;17.20;;;;;;;;4981518;28;8992;-79
2022/06/19 15:02:54;;;;;;;;;18.20;17.40;;;;;;;;4980909;28;8979;-79
2022/06/19 15:05:28;;;;;;;;;19.40;14.60;;;;;;;;4979640;28;8887;-77
2022/06/19 15:08:03;;;;;;;;;19.20;19.20;;;;;;;;4983476;28;8901;-77
2022/06/19 15:10:36;;;;;;;;;16.00;16.00;;;;;;;;4980645;28;8908;-77
2022/06/19 15:13:19;;;;;;;;;18.60;17.00;;;;;;;;4981831;28;8996;-79
2022/06/19 15:15:50;;;;;;;;;16.80;15.00;;;;;;;;4979631;28;9668;-78
2022/06/19 15:18:20;;;;;;;;;19.00;15.80;;;;;;;;4979784;28;8866;-78
2022/06/19 15:21:09;;;;;;;;;17.20;15.80;;;;;;;;4982035;28;8885;-79
2022/06/19 15:23:40;;;;;;;;;14.60;14.60;;;;;;;;4978708;28;8925;-77
2022/06/19 15:26:34;;;;;;;;;14.20;14.20;;;;;;;;4981540;28;8912;-81
2022/06/19 15:29:21;;;;;;;;;17.60;16.40;;;;;;;;4980691;28;8895;-78
2022/06/19 15:32:38;;;;;;;;;17.40;16.60;;;;;;;;4976730;28;8864;-78
2022/06/19 15:35:44;;;;;;;;;19.60;19.60;;;;;;;;4978729;28;9685;-80